createdAt,value
2018-09-15T00:01:50.835Z,70.10
2018-09-15T00:04:18.506Z,69.60
2018-09-15T00:06:46.149Z,69.20
2018-09-15T00:09:13.786Z,69.20
2018-09-15T00:11:41.383Z,69.00
2018-09-15T00:14:09.038Z,69.20
2018-09-15T00:16:36.743Z,69.20
2018-09-15T00:19:04.453Z,69.70
2018-09-15T00:21:32.146Z,69.80
2018-09-15T00:23:59.819Z,69.40
2018-09-15T00:26:27.449Z,69.60
2018-09-15T00:28:55.151Z,69.20
2018-09-15T00:31:25.763Z,69.30
2018-09-15T00:33:53.444Z,68.90
2018-09-15T00:36:21.090Z,69.00
2018-09-15T00:38:48.750Z,68.90
2018-09-15T00:41:16.315Z,69.00
2018-09-15T00:43:44.201Z,69.00
2018-09-15T00:46:11.839Z,68.70
2018-09-15T00:48:39.526Z,68.90
2018-09-15T00:51:07.236Z,68.50
2018-09-15T00:53:34.863Z,68.50
2018-09-15T00:56:02.578Z,68.50
2018-09-15T00:58:30.222Z,67.60
2018-09-15T01:00:57.844Z,67.80
2018-09-15T01:03:25.477Z,67.70
2018-09-15T01:05:53.130Z,68.20
2018-09-15T01:08:20.762Z,68.00
2018-09-15T01:10:48.433Z,67.80
2018-09-15T01:13:16.135Z,68.10
2018-09-15T01:15:43.759Z,67.80
2018-09-15T01:18:11.418Z,68.00
2018-09-15T01:20:39.023Z,68.10
2018-09-15T01:23:06.754Z,68.30
2018-09-15T01:25:34.481Z,68.50
2018-09-15T01:28:02.075Z,68.30
2018-09-15T01:30:29.805Z,68.50
2018-09-15T01:32:57.455Z,68.40
2018-09-15T01:35:26.875Z,68.80
2018-09-15T01:37:54.526Z,68.80
2018-09-15T01:40:22.118Z,68.80
2018-09-15T01:42:49.744Z,68.70
2018-09-15T01:45:17.415Z,68.50
2018-09-15T01:47:45.030Z,68.70
2018-09-15T01:50:12.699Z,69.00
2018-09-15T01:52:40.375Z,69.20
2018-09-15T01:55:08.136Z,69.30
2018-09-15T01:57:35.871Z,69.40
2018-09-15T02:00:03.560Z,69.30
2018-09-15T02:02:31.299Z,69.40
2018-09-15T02:04:58.950Z,69.10
2018-09-15T02:07:26.600Z,69.20
2018-09-15T02:09:54.239Z,69.00
2018-09-15T02:12:21.983Z,69.50
2018-09-15T02:14:49.614Z,69.80
2018-09-15T02:17:17.221Z,69.90
2018-09-15T02:19:44.918Z,69.90
2018-09-15T02:22:12.580Z,70.30
2018-09-15T02:24:40.198Z,70.70
2018-09-15T02:27:08.007Z,70.70
2018-09-15T02:29:35.714Z,70.50
2018-09-15T02:32:03.258Z,71.10
2018-09-15T02:34:30.936Z,71.60
2018-09-15T02:36:58.587Z,72.00
2018-09-15T02:39:26.238Z,71.90
2018-09-15T02:41:53.855Z,71.80
2018-09-15T02:44:21.472Z,72.60
2018-09-15T02:46:49.234Z,74.00
2018-09-15T02:49:16.852Z,74.20
2018-09-15T02:51:44.470Z,73.20
2018-09-15T02:54:12.118Z,73.20
2018-09-15T02:56:39.785Z,73.00
2018-09-15T02:59:07.418Z,73.20
2018-09-15T03:01:35.103Z,73.30
2018-09-15T03:04:02.724Z,74.10
2018-09-15T03:06:30.394Z,74.30
2018-09-15T03:08:58.346Z,74.50
2018-09-15T03:11:25.997Z,75.00
2018-09-15T03:13:53.687Z,74.80
2018-09-15T03:16:21.279Z,75.00
2018-09-15T03:18:48.920Z,74.80
2018-09-15T03:21:16.592Z,75.00
2018-09-15T03:23:44.229Z,75.10
2018-09-15T03:26:11.952Z,75.50
2018-09-15T03:28:39.632Z,76.40
2018-09-15T03:31:07.244Z,76.70
2018-09-15T03:33:34.995Z,77.70
2018-09-15T03:36:02.660Z,78.30
2018-09-15T03:38:31.395Z,78.10
2018-09-15T03:40:59.155Z,78.70
2018-09-15T03:43:26.766Z,79.80
2018-09-15T03:45:54.758Z,79.80
2018-09-15T03:48:22.795Z,80.60
2018-09-15T03:50:52.490Z,80.10
2018-09-15T03:53:21.193Z,80.40
2018-09-15T03:55:49.375Z,80.90
2018-09-15T03:58:16.953Z,81.00
2018-09-15T04:00:47.377Z,81.30
2018-09-15T04:03:15.252Z,80.90
2018-09-15T04:05:42.994Z,81.00
2018-09-15T04:08:10.738Z,81.10
2018-09-15T04:10:38.318Z,80.60
2018-09-15T04:13:05.993Z,80.50
2018-09-15T04:15:33.979Z,80.30
2018-09-15T04:18:01.732Z,80.30
2018-09-15T04:20:29.389Z,80.40
2018-09-15T04:22:57.135Z,80.60
2018-09-15T04:25:24.778Z,80.70
2018-09-15T04:27:52.416Z,80.70
2018-09-15T04:30:20.087Z,80.50
2018-09-15T04:32:47.801Z,80.80
2018-09-15T04:35:15.412Z,80.40
2018-09-15T04:37:43.127Z,80.40
2018-09-15T04:40:10.858Z,80.90
2018-09-15T04:42:38.482Z,81.00
2018-09-15T04:45:06.160Z,81.20
2018-09-15T04:47:35.689Z,81.50
2018-09-15T04:50:04.057Z,81.40
2018-09-15T04:52:32.024Z,81.60
2018-09-15T04:54:59.690Z,81.20
2018-09-15T04:57:27.351Z,81.50
2018-09-15T04:59:58.859Z,81.40
2018-09-15T05:02:26.678Z,81.40
2018-09-15T05:04:54.511Z,81.10
2018-09-15T05:07:22.499Z,81.20
2018-09-15T05:09:50.123Z,81.60
2018-09-15T05:12:18.101Z,82.50
2018-09-15T05:14:45.807Z,82.90
2018-09-15T05:17:13.523Z,83.70
2018-09-15T05:19:41.184Z,85.20
2018-09-15T05:22:08.867Z,86.20
2018-09-15T05:24:36.540Z,87.50
2018-09-15T05:27:04.716Z,87.50
2018-09-15T05:29:32.385Z,87.80
2018-09-15T05:32:00.020Z,87.90
2018-09-15T05:34:27.678Z,87.20
2018-09-15T05:36:55.328Z,85.90
2018-09-15T05:39:22.919Z,84.90
2018-09-15T05:41:50.607Z,83.70
2018-09-15T05:44:18.362Z,83.70
2018-09-15T05:46:46.066Z,84.60
2018-09-15T05:49:13.726Z,86.30
2018-09-15T05:51:41.431Z,86.60
2018-09-15T05:54:09.131Z,85.80
2018-09-15T05:56:36.886Z,85.60
2018-09-15T05:59:04.870Z,85.50
2018-09-15T06:01:32.614Z,85.10
2018-09-15T06:04:00.280Z,84.40
2018-09-15T06:06:27.955Z,85.50
2018-09-15T06:08:55.702Z,86.10
2018-09-15T06:11:23.340Z,85.90
2018-09-15T06:13:51.097Z,85.80
2018-09-15T06:16:18.682Z,85.80
2018-09-15T06:18:46.333Z,85.20
2018-09-15T06:21:13.963Z,84.40
2018-09-15T06:23:41.678Z,82.10
2018-09-15T06:26:11.198Z,81.70
2018-09-15T06:28:38.870Z,81.10
2018-09-15T06:31:06.522Z,80.00
2018-09-15T06:33:34.162Z,79.30
2018-09-15T06:36:01.770Z,78.10
2018-09-15T06:38:29.472Z,73.80
2018-09-15T06:40:57.145Z,69.00
2018-09-15T06:43:24.730Z,65.00
2018-09-15T06:45:52.475Z,62.10
2018-09-15T06:48:19.986Z,59.40
2018-09-15T06:50:47.606Z,58.00
2018-09-15T06:53:15.222Z,55.90
2018-09-15T06:55:42.955Z,55.60
2018-09-15T06:58:10.650Z,55.20
2018-09-15T07:00:38.396Z,55.60
2018-09-15T07:03:06.131Z,55.10
2018-09-15T07:05:33.730Z,54.70
2018-09-15T07:08:01.419Z,53.80
2018-09-15T07:10:29.062Z,53.20
2018-09-15T07:12:56.763Z,53.80
2018-09-15T07:15:24.455Z,51.00
2018-09-15T07:17:52.074Z,48.00
2018-09-15T07:20:19.679Z,44.30
2018-09-15T07:22:47.342Z,44.20
2018-09-15T07:25:15.010Z,44.40
2018-09-15T07:27:42.643Z,43.80
2018-09-15T07:30:10.315Z,45.20
2018-09-15T07:32:38.087Z,42.30
2018-09-15T07:35:05.814Z,41.10
2018-09-15T07:37:33.483Z,41.80
2018-09-15T07:40:01.107Z,41.00
2018-09-15T07:42:28.768Z,37.90
2018-09-15T07:44:56.467Z,35.90
2018-09-15T07:47:24.176Z,35.90
2018-09-15T07:49:52.131Z,35.10
2018-09-15T07:52:19.914Z,34.50
2018-09-15T07:54:47.631Z,33.50
2018-09-15T07:57:15.293Z,32.40
2018-09-15T07:59:43.054Z,32.00
2018-09-15T08:02:16.327Z,31.90
2018-09-15T08:04:44.175Z,31.30
2018-09-15T08:07:11.779Z,30.50
2018-09-15T08:09:39.499Z,29.70
2018-09-15T08:12:07.209Z,29.90
2018-09-15T08:14:34.989Z,30.60
2018-09-15T08:17:04.055Z,29.30
2018-09-15T08:19:31.782Z,29.60
2018-09-15T08:21:59.550Z,29.00
2018-09-15T08:24:28.024Z,29.10
2018-09-15T08:26:55.658Z,28.30
2018-09-15T08:29:23.351Z,27.70
2018-09-15T08:31:51.459Z,27.40
2018-09-15T08:34:19.173Z,28.50
2018-09-15T08:36:46.936Z,28.90
2018-09-15T08:39:14.577Z,28.40
2018-09-15T08:41:42.272Z,29.10
2018-09-15T08:44:10.097Z,29.70
2018-09-15T08:46:38.666Z,30.20
2018-09-15T08:49:06.538Z,30.70
2018-09-15T08:51:34.262Z,31.00
2018-09-15T08:54:01.982Z,31.60
2018-09-15T08:56:30.887Z,32.00
2018-09-15T08:58:59.246Z,31.90
2018-09-15T09:01:27.831Z,32.30
2018-09-15T09:03:55.483Z,31.70
2018-09-15T09:06:24.026Z,32.00
2018-09-15T09:08:51.740Z,31.40
2018-09-15T09:11:19.416Z,31.80
2018-09-15T09:13:47.151Z,33.20
2018-09-15T09:16:14.904Z,33.10
2018-09-15T09:18:42.707Z,32.40
2018-09-15T09:21:11.082Z,33.30
2018-09-15T09:23:38.949Z,31.30
2018-09-15T09:26:06.703Z,31.70
2018-09-15T09:28:34.495Z,31.20
2018-09-15T09:31:02.206Z,30.50
2018-09-15T09:33:29.779Z,30.40
2018-09-15T09:35:57.736Z,30.80
2018-09-15T09:38:25.445Z,30.40
2018-09-15T09:40:53.103Z,30.00
2018-09-15T09:43:20.802Z,30.50
2018-09-15T09:45:48.801Z,30.10
2018-09-15T09:48:16.452Z,29.80
2018-09-15T09:50:44.145Z,30.00
2018-09-15T09:53:11.782Z,30.70
2018-09-15T09:55:39.507Z,33.20
2018-09-15T09:58:07.256Z,35.20
2018-09-15T10:00:40.571Z,33.90
2018-09-15T10:03:08.307Z,35.00
2018-09-15T10:05:36.066Z,34.20
2018-09-15T10:08:03.842Z,33.60
2018-09-15T10:10:31.524Z,33.40
2018-09-15T10:12:59.095Z,33.40
2018-09-15T10:15:27.019Z,32.80
2018-09-15T10:17:54.695Z,35.00
2018-09-15T10:20:22.389Z,35.30
2018-09-15T10:22:50.016Z,35.50
2018-09-15T10:25:17.651Z,36.70
2018-09-15T10:27:45.279Z,36.60
2018-09-15T10:30:12.899Z,36.60
2018-09-15T10:32:40.575Z,36.60
2018-09-15T10:35:08.297Z,37.90
2018-09-15T10:37:36.018Z,38.20
2018-09-15T10:40:03.960Z,37.60
2018-09-15T10:42:31.567Z,37.90
2018-09-15T10:45:00.265Z,38.10
2018-09-15T10:47:29.073Z,38.00
2018-09-15T10:49:56.793Z,37.40
2018-09-15T10:52:26.733Z,36.80
2018-09-15T10:54:54.724Z,37.90
2018-09-15T10:57:22.360Z,39.10
2018-09-15T10:59:50.797Z,39.60
2018-09-15T11:02:18.543Z,39.30
2018-09-15T11:04:46.575Z,38.60
2018-09-15T11:07:15.943Z,38.10
2018-09-15T11:09:43.658Z,39.60
2018-09-15T11:12:11.942Z,41.00
2018-09-15T11:14:39.545Z,41.20
2018-09-15T11:17:07.441Z,40.70
2018-09-15T11:19:35.116Z,40.50
2018-09-15T11:22:03.914Z,41.00
2018-09-15T11:24:31.686Z,40.30
2018-09-15T11:26:59.417Z,40.20
2018-09-15T11:29:27.489Z,40.40
2018-09-15T11:31:55.192Z,40.60
2018-09-15T11:34:22.848Z,41.20
2018-09-15T11:36:50.535Z,41.50
2018-09-15T11:39:18.155Z,41.40
2018-09-15T11:41:45.872Z,41.30
2018-09-15T11:44:13.471Z,41.00
2018-09-15T11:46:41.124Z,40.70
2018-09-15T11:49:08.803Z,41.10
2018-09-15T11:51:36.543Z,40.90
2018-09-15T11:54:04.370Z,40.60
2018-09-15T11:56:32.075Z,41.20
2018-09-15T11:58:59.747Z,40.80
2018-09-15T12:01:27.483Z,39.60
2018-09-15T12:03:55.167Z,38.30
2018-09-15T12:06:22.809Z,38.20
2018-09-15T12:08:50.645Z,37.90
2018-09-15T12:11:18.363Z,38.20
2018-09-15T12:13:46.165Z,38.40
2018-09-15T12:16:14.012Z,38.00
2018-09-15T12:18:41.849Z,38.20
2018-09-15T12:21:09.555Z,38.80
2018-09-15T12:23:37.247Z,39.00
2018-09-15T12:26:05.048Z,39.10
2018-09-15T12:28:32.884Z,38.50
2018-09-15T12:31:00.561Z,38.50
2018-09-15T12:33:28.349Z,39.60
2018-09-15T12:35:55.980Z,39.70
2018-09-15T12:38:23.710Z,39.80
2018-09-15T12:40:51.535Z,39.70
2018-09-15T12:43:19.187Z,39.40
2018-09-15T12:45:46.921Z,39.50
2018-09-15T12:48:14.582Z,39.50
2018-09-15T12:50:42.280Z,39.80
2018-09-15T12:53:10.042Z,39.80
2018-09-15T12:55:37.900Z,40.20
2018-09-15T12:58:05.999Z,40.50
2018-09-15T13:00:33.684Z,40.40
2018-09-15T13:03:01.373Z,40.90
2018-09-15T13:05:29.052Z,40.70
2018-09-15T13:07:56.807Z,41.30
2018-09-15T13:10:24.574Z,41.10
2018-09-15T13:12:52.247Z,40.20
2018-09-15T13:15:19.942Z,40.10
2018-09-15T13:17:47.619Z,40.50
2018-09-15T13:20:15.387Z,40.80
2018-09-15T13:22:43.062Z,40.80
2018-09-15T13:25:10.716Z,40.80
2018-09-15T13:27:38.466Z,41.10
2018-09-15T13:30:06.774Z,40.50
2018-09-15T13:32:34.443Z,40.80
2018-09-15T13:35:02.090Z,41.40
2018-09-15T13:37:29.867Z,40.50
2018-09-15T13:39:57.637Z,40.60
2018-09-15T13:42:25.264Z,40.80
2018-09-15T13:44:52.944Z,41.00
2018-09-15T13:47:20.742Z,41.00
2018-09-15T13:49:48.414Z,40.80
2018-09-15T13:52:16.178Z,40.80
2018-09-15T13:54:44.012Z,40.00
2018-09-15T13:57:11.651Z,40.10
2018-09-15T13:59:39.427Z,40.80
2018-09-15T14:02:07.042Z,40.80
2018-09-15T14:04:34.656Z,40.50
2018-09-15T14:07:02.268Z,40.30
2018-09-15T14:09:29.963Z,40.30
2018-09-15T14:11:57.613Z,40.70
2018-09-15T14:14:25.265Z,39.60
2018-09-15T14:16:52.905Z,38.50
2018-09-15T14:19:20.554Z,38.90
2018-09-15T14:21:48.138Z,39.30
2018-09-15T14:24:15.874Z,39.30
2018-09-15T14:26:43.619Z,39.80
2018-09-15T14:29:11.291Z,39.50
2018-09-15T14:31:38.899Z,40.10
2018-09-15T14:34:06.642Z,40.50
2018-09-15T14:36:34.417Z,39.40
2018-09-15T14:39:06.991Z,39.80
2018-09-15T14:41:34.616Z,40.40
2018-09-15T14:44:02.290Z,40.50
2018-09-15T14:46:30.259Z,40.00
2018-09-15T14:48:58.531Z,40.60
2018-09-15T14:51:26.094Z,41.20
2018-09-15T14:53:55.970Z,40.90
2018-09-15T14:56:24.932Z,40.70
2018-09-15T14:58:52.614Z,41.10
2018-09-15T15:01:22.233Z,41.80
2018-09-15T15:03:51.048Z,40.90
2018-09-15T15:06:18.728Z,41.10
2018-09-15T15:08:48.819Z,41.00
2018-09-15T15:11:17.008Z,41.00
2018-09-15T15:13:45.034Z,40.90
2018-09-15T15:16:13.835Z,40.70
2018-09-15T15:18:41.439Z,40.90
2018-09-15T15:21:11.120Z,40.20
2018-09-15T15:23:38.837Z,40.80
2018-09-15T15:26:07.660Z,41.80
2018-09-15T15:28:35.440Z,42.60
2018-09-15T15:31:10.322Z,42.90
2018-09-15T15:33:37.959Z,43.20
2018-09-15T15:36:05.852Z,43.40
2018-09-15T15:38:34.266Z,43.40
2018-09-15T15:41:02.663Z,43.30
2018-09-15T15:43:30.769Z,43.10
2018-09-15T15:45:59.419Z,43.10
2018-09-15T15:48:27.740Z,42.50
2018-09-15T15:50:58.966Z,42.30
2018-09-15T15:53:29.147Z,42.30
2018-09-15T15:56:03.152Z,43.10
2018-09-15T15:58:31.340Z,43.20
2018-09-15T16:00:59.248Z,42.60
2018-09-15T16:03:27.316Z,42.10
2018-09-15T16:08:35.042Z,42.20
2018-09-15T16:11:03.734Z,42.20
2018-09-15T16:13:31.349Z,42.00
2018-09-15T16:16:00.084Z,42.50
2018-09-15T16:18:28.470Z,42.70
2018-09-15T16:20:57.258Z,42.60
2018-09-15T16:23:25.287Z,42.50
2018-09-15T16:25:53.015Z,42.50
2018-09-15T16:28:20.895Z,42.60
2018-09-15T16:30:48.837Z,42.30
2018-09-15T16:33:17.378Z,42.20
2018-09-15T16:35:45.318Z,42.50
2018-09-15T16:38:13.843Z,42.30
2018-09-15T16:40:42.128Z,42.50
2018-09-15T16:43:09.922Z,43.20
2018-09-15T16:45:49.450Z,43.60
2018-09-15T16:48:17.116Z,43.80
2018-09-15T16:50:44.841Z,43.50
2018-09-15T16:53:13.508Z,43.60
2018-09-15T16:55:42.330Z,43.80
2018-09-15T16:58:13.559Z,43.40
2018-09-15T17:00:41.395Z,43.90
2018-09-15T17:03:09.875Z,44.10
2018-09-15T17:05:38.390Z,44.40
2018-09-15T17:08:12.636Z,44.30
2018-09-15T17:10:44.907Z,44.00
2018-09-15T17:13:14.761Z,44.00
2018-09-15T17:15:46.519Z,45.10
2018-09-15T17:18:15.194Z,45.00
2018-09-15T17:20:43.075Z,45.40
2018-09-15T17:25:52.667Z,45.70
2018-09-15T17:28:20.651Z,45.90
2018-09-15T17:30:48.612Z,45.60
2018-09-15T17:33:16.761Z,46.10
2018-09-15T17:35:44.779Z,45.80
2018-09-15T17:38:13.317Z,45.60
2018-09-15T17:40:41.181Z,45.60
2018-09-15T17:43:09.387Z,45.80
2018-09-15T17:45:37.444Z,45.90
2018-09-15T17:48:05.651Z,45.90
2018-09-15T17:50:33.543Z,46.10
2018-09-15T17:53:01.602Z,47.20
2018-09-15T17:55:29.552Z,49.30
2018-09-15T17:57:58.216Z,50.40
2018-09-15T18:00:26.268Z,51.30
2018-09-15T18:02:54.064Z,49.70
2018-09-15T18:05:21.950Z,49.20
2018-09-15T18:07:49.966Z,49.10
2018-09-15T18:10:18.144Z,49.10
2018-09-15T18:12:47.058Z,49.50
2018-09-15T18:15:15.036Z,50.20
2018-09-15T18:17:42.931Z,51.30
2018-09-15T18:20:11.387Z,52.10
2018-09-15T18:22:39.210Z,52.40
2018-09-15T18:25:07.256Z,53.10
2018-09-15T18:27:35.186Z,53.80
2018-09-15T18:30:04.780Z,54.40
2018-09-15T18:32:33.933Z,53.90
2018-09-15T18:35:03.663Z,53.60
2018-09-15T18:37:32.790Z,53.80
2018-09-15T18:40:02.482Z,54.10
2018-09-15T18:42:31.231Z,54.20
2018-09-15T18:45:01.665Z,54.50
2018-09-15T18:47:31.609Z,54.90
2018-09-15T18:49:59.474Z,55.60
2018-09-15T18:52:28.140Z,55.80
2018-09-15T18:54:57.130Z,56.20
2018-09-15T18:57:28.045Z,56.80
2018-09-15T18:59:56.510Z,57.30
2018-09-15T19:02:24.831Z,57.00
2018-09-15T19:04:54.549Z,56.70
2018-09-15T19:07:22.323Z,56.10
2018-09-15T19:09:50.263Z,56.30
2018-09-15T19:12:18.314Z,56.20
2018-09-15T19:14:46.313Z,55.80
2018-09-15T19:17:15.177Z,55.80
2018-09-15T19:19:43.640Z,55.90
2018-09-15T19:22:12.159Z,56.30
2018-09-15T19:24:40.307Z,56.20
2018-09-15T19:27:09.080Z,55.70
2018-09-15T19:29:37.846Z,55.50
2018-09-15T19:32:12.214Z,55.30
2018-09-15T19:34:41.143Z,55.40
2018-09-15T19:37:10.082Z,55.60
2018-09-15T19:39:38.014Z,56.40
2018-09-15T19:42:08.761Z,57.00
2018-09-15T19:44:42.383Z,57.80
2018-09-15T19:47:10.859Z,59.30
2018-09-15T19:49:39.026Z,62.00
2018-09-15T19:52:07.202Z,62.20
2018-09-15T19:54:35.378Z,61.90
2018-09-15T19:57:04.317Z,62.40
2018-09-15T19:59:32.897Z,62.90
2018-09-15T20:02:01.537Z,62.40
2018-09-15T20:04:29.824Z,61.70
2018-09-15T20:06:58.433Z,61.80
2018-09-15T20:09:28.037Z,62.20
2018-09-15T20:11:56.140Z,62.90
2018-09-15T20:14:25.806Z,63.70
2018-09-15T20:16:52.620Z,64.70
2018-09-15T20:19:19.727Z,65.20
2018-09-15T20:21:46.636Z,66.60
2018-09-15T20:24:15.808Z,67.30
2018-09-15T20:26:43.626Z,66.70
2018-09-15T20:29:17.680Z,66.80
2018-09-15T20:31:58.344Z,67.50
2018-09-15T20:34:31.403Z,66.50
2018-09-15T20:37:04.077Z,65.60
2018-09-15T20:39:32.203Z,66.60
2018-09-15T20:42:02.404Z,67.10
2018-09-15T20:44:31.882Z,67.10
2018-09-15T20:46:59.967Z,66.70
2018-09-15T20:49:27.845Z,66.90
2018-09-15T20:51:55.895Z,67.60
2018-09-15T20:54:25.118Z,66.80
2018-09-15T20:56:53.520Z,66.50
2018-09-15T20:59:22.063Z,65.10
2018-09-15T21:01:50.645Z,64.00
2018-09-15T21:04:18.645Z,62.70
2018-09-15T21:06:46.606Z,62.70
2018-09-15T21:09:14.392Z,61.80
2018-09-15T21:11:42.258Z,60.90
2018-09-15T21:14:10.082Z,60.00
2018-09-15T21:16:37.952Z,60.00
2018-09-15T21:19:06.111Z,59.90
2018-09-15T21:21:34.143Z,59.80
2018-09-15T21:24:02.643Z,59.60
2018-09-15T21:26:30.651Z,59.60
2018-09-15T21:28:58.827Z,59.20
2018-09-15T21:31:26.722Z,59.30
2018-09-15T21:33:55.553Z,59.20
2018-09-15T21:36:23.430Z,60.00
2018-09-15T21:38:51.224Z,60.70
2018-09-15T21:41:18.942Z,62.00
2018-09-15T21:43:46.835Z,62.80
2018-09-15T21:46:14.780Z,63.70
2018-09-15T21:48:42.498Z,64.20
2018-09-15T21:51:10.540Z,65.10
2018-09-15T21:53:38.396Z,65.80
2018-09-15T21:56:06.184Z,65.30
2018-09-15T21:58:34.768Z,64.60
2018-09-15T22:01:03.688Z,64.50
2018-09-15T22:03:35.946Z,64.70
2018-09-15T22:06:04.038Z,64.30
2018-09-15T22:08:31.777Z,63.90
2018-09-15T22:10:59.521Z,63.80
2018-09-15T22:13:27.339Z,62.90
2018-09-15T22:15:55.321Z,63.30
2018-09-15T22:18:23.073Z,63.10
2018-09-15T22:20:50.842Z,63.30
2018-09-15T22:23:18.581Z,64.70
2018-09-15T22:25:46.363Z,65.60
2018-09-15T22:28:14.131Z,66.20
2018-09-15T22:30:41.849Z,66.20
2018-09-15T22:33:09.598Z,66.80
2018-09-15T22:35:37.313Z,66.70
2018-09-15T22:38:06.027Z,67.00
2018-09-15T22:40:33.762Z,67.10
2018-09-15T22:43:01.528Z,66.80
2018-09-15T22:45:29.343Z,66.80
2018-09-15T22:47:57.125Z,67.90
2018-09-15T22:50:25.090Z,67.30
2018-09-15T22:52:52.817Z,66.80
2018-09-15T22:55:20.671Z,67.00
2018-09-15T22:57:48.436Z,67.10
2018-09-15T23:00:16.694Z,66.40
2018-09-15T23:02:44.451Z,65.90
2018-09-15T23:05:12.240Z,66.40
2018-09-15T23:07:40.041Z,66.80
2018-09-15T23:10:07.916Z,69.20
2018-09-15T23:12:35.829Z,68.60
2018-09-15T23:15:03.727Z,73.80
2018-09-15T23:17:31.547Z,76.00
2018-09-15T23:19:59.316Z,76.30
2018-09-15T23:22:27.066Z,75.10
2018-09-15T23:24:54.915Z,74.40
2018-09-15T23:27:22.775Z,75.50
2018-09-15T23:29:50.744Z,75.30
2018-09-15T23:32:18.612Z,75.40
2018-09-15T23:34:46.394Z,75.00
2018-09-15T23:37:14.154Z,74.80
2018-09-15T23:39:42.011Z,73.30
2018-09-15T23:42:09.839Z,73.80
2018-09-15T23:44:37.676Z,74.60
2018-09-15T23:47:05.518Z,74.90
2018-09-15T23:49:33.241Z,74.40
2018-09-15T23:52:01.060Z,72.40
2018-09-15T23:54:28.824Z,72.10
2018-09-15T23:56:56.574Z,72.40
2018-09-15T23:59:24.371Z,73.00
